Time;durP1;ratioP1;P1;durP2;ratioP2;P2;SDS_P1;SDS_P2;PMS_P1;PMS_P2;Temp;Humidity;BMP_temperature;BMP_pressure;BME280_temperature;BME280_humidity;BME280_pressure;Samples;Min_cycle;Max_cycle;Signal;HPM_P1;HPM_P2
2022/12/11 04:57:28;;;;;;;9.00;6.37;;;;;;;;;;1785179;80;28049;-70
2022/12/11 04:59:54;;;;;;;8.80;6.25;;;;;;;;;;1814474;78;20999;-69
2022/12/11 05:02:20;;;;;;;8.43;6.37;;;;;;;;;;1793495;80;20996;-71
2022/12/11 05:04:46;;;;;;;8.25;5.65;;;;;;;;;;1849059;77;21646;-71
2022/12/11 05:07:12;;;;;;;7.22;5.53;;;;;;;;;;1770823;80;20999;-71
2022/12/11 05:09:38;;;;;;;7.35;5.10;;;;;;;;;;1787550;80;21048;-71
2022/12/11 05:12:04;;;;;;;6.70;4.80;;;;;;;;;;1790605;80;21595;-70
2022/12/11 05:14:32;;;;;;;8.58;5.70;;;;;;;;;;1823267;79;21028;-71
2022/12/11 05:16:59;;;;;;;6.58;4.62;;;;;;;;;;1822548;78;21028;-70
2022/12/11 05:19:25;;;;;;;7.17;5.28;;;;;;;;;;1791036;80;20996;-73
2022/12/11 05:21:51;;;;;;;7.47;5.60;;;;;;;;;;1803001;77;21496;-71
2022/12/11 05:24:18;;;;;;;6.65;4.95;;;;;;;;;;1860150;77;21074;-71
2022/12/11 05:26:44;;;;;;;6.17;4.33;;;;;;;;;;1817981;77;21040;-70
2022/12/11 05:29:10;;;;;;;7.60;4.80;;;;;;;;;;1758476;79;21068;-71
2022/12/11 05:31:36;;;;;;;7.50;4.83;;;;;;;;;;1822639;78;21004;-71
2022/12/11 05:34:03;;;;;;;8.58;5.60;;;;;;;;;;1819118;77;21642;-71
2022/12/11 05:36:30;;;;;;;8.30;5.65;;;;;;;;;;1820821;77;21015;-72
2022/12/11 05:38:56;;;;;;;9.30;5.25;;;;;;;;;;1812600;78;21039;-71
2022/12/11 05:41:23;;;;;;;8.63;5.40;;;;;;;;;;1801804;78;21515;-71
2022/12/11 05:43:50;;;;;;;7.90;5.25;;;;;;;;;;1847499;77;21452;-71
2022/12/11 05:46:17;;;;;;;7.83;5.42;;;;;;;;;;1823566;77;21062;-71
2022/12/11 05:48:43;;;;;;;7.40;4.90;;;;;;;;;;1797558;78;21016;-72
2022/12/11 05:51:09;;;;;;;7.05;5.00;;;;;;;;;;1810915;78;20981;-70
2022/12/11 05:53:36;;;;;;;7.83;5.25;;;;;;;;;;1801140;78;21016;-70
2022/12/11 05:56:04;;;;;;;9.23;5.83;;;;;;;;;;1797656;78;21019;-72
2022/12/11 05:58:32;;;;;;;8.95;5.28;;;;;;;;;;1800267;78;20996;-72
2022/12/11 06:00:59;;;;;;;8.83;5.67;;;;;;;;;;1803877;78;21014;-71
2022/12/11 06:03:26;;;;;;;8.25;5.72;;;;;;;;;;1794166;78;21111;-71
2022/12/11 06:05:52;;;;;;;9.18;5.90;;;;;;;;;;1795652;78;21044;-72
2022/12/11 06:08:18;;;;;;;7.33;5.37;;;;;;;;;;1803696;78;21504;-72
2022/12/11 06:10:45;;;;;;;8.00;5.20;;;;;;;;;;1824181;78;21099;-71
2022/12/11 06:13:11;;;;;;;8.83;5.67;;;;;;;;;;1816400;78;21067;-72
2022/12/11 06:15:37;;;;;;;7.25;5.00;;;;;;;;;;1804541;78;21122;-72
2022/12/11 06:18:03;;;;;;;9.30;5.87;;;;;;;;;;1792524;78;21545;-72
2022/12/11 06:20:30;;;;;;;7.70;5.10;;;;;;;;;;1823614;78;21012;-72
2022/12/11 06:22:56;;;;;;;7.40;4.95;;;;;;;;;;1809466;78;21476;-73
2022/12/11 06:25:22;;;;;;;7.83;5.47;;;;;;;;;;1815913;78;21036;-75
2022/12/11 06:27:49;;;;;;;7.37;5.12;;;;;;;;;;1794085;80;21532;-71
2022/12/11 06:30:15;;;;;;;8.05;5.15;;;;;;;;;;1802467;78;21059;-72
2022/12/11 06:32:42;;;;;;;7.08;4.72;;;;;;;;;;1821815;78;20993;-71
2022/12/11 06:35:08;;;;;;;7.35;5.00;;;;;;;;;;1795093;80;21052;-72
2022/12/11 06:37:34;;;;;;;9.30;5.55;;;;;;;;;;1797961;80;21504;-71
2022/12/11 06:40:01;;;;;;;8.35;5.53;;;;;;;;;;1794031;80;21055;-71
2022/12/11 06:42:30;;;;;;;6.62;4.40;;;;;;;;;;1807591;78;21048;-72
2022/12/11 06:44:58;;;;;;;7.62;5.40;;;;;;;;;;1800710;78;21035;-72
2022/12/11 06:47:25;;;;;;;7.58;4.37;;;;;;;;;;1795030;78;22069;-73
2022/12/11 06:49:52;;;;;;;5.65;4.10;;;;;;;;;;1803825;78;21029;-72
2022/12/11 06:52:19;;;;;;;7.20;4.70;;;;;;;;;;1819216;78;21009;-73
2022/12/11 06:54:45;;;;;;;7.55;4.85;;;;;;;;;;1794367;78;21043;-72
2022/12/11 06:57:12;;;;;;;7.25;4.62;;;;;;;;;;1794316;78;21037;-71
2022/12/11 06:59:38;;;;;;;7.08;4.95;;;;;;;;;;1792399;80;21008;-73
2022/12/11 07:02:04;;;;;;;5.78;4.30;;;;;;;;;;1792553;80;21099;-73
2022/12/11 07:04:31;;;;;;;6.78;4.80;;;;;;;;;;1793996;78;21102;-73
2022/12/11 07:06:57;;;;;;;7.97;5.40;;;;;;;;;;1792816;78;21007;-73
2022/12/11 07:09:23;;;;;;;7.30;4.83;;;;;;;;;;1792219;80;21052;-72
2022/12/11 07:11:53;;;;;;;7.08;4.53;;;;;;;;;;1786476;78;21052;-72
2022/12/11 07:14:19;;;;;;;7.20;5.33;;;;;;;;;;1795614;78;21079;-72
2022/12/11 07:16:45;;;;;;;6.65;5.03;;;;;;;;;;1795415;78;21083;-73
2022/12/11 07:19:12;;;;;;;6.30;4.70;;;;;;;;;;1799000;78;21028;-73
2022/12/11 07:21:38;;;;;;;8.20;5.22;;;;;;;;;;1809385;78;21036;-73
2022/12/11 07:24:04;;;;;;;6.80;4.78;;;;;;;;;;1825028;78;21587;-72
2022/12/11 07:26:30;;;;;;;8.23;5.55;;;;;;;;;;1810856;78;21036;-73
2022/12/11 07:28:57;;;;;;;8.40;5.40;;;;;;;;;;1812882;78;21032;-73
2022/12/11 07:31:24;;;;;;;7.15;4.62;;;;;;;;;;1809069;78;21013;-72
2022/12/11 07:33:54;;;;;;;7.17;4.67;;;;;;;;;;1796446;78;21016;-73
2022/12/11 07:36:19;;;;;;;6.87;4.47;;;;;;;;;;1812037;78;20973;-73
2022/12/11 07:38:45;;;;;;;6.97;4.95;;;;;;;;;;1806828;78;21507;-72
2022/12/11 07:41:13;;;;;;;8.53;5.42;;;;;;;;;;1799064;78;21123;-73
2022/12/11 07:43:39;;;;;;;7.40;5.42;;;;;;;;;;1790897;78;21420;-72
2022/12/11 07:46:07;;;;;;;6.75;4.75;;;;;;;;;;1806206;78;21149;-73
2022/12/11 07:48:35;;;;;;;8.25;5.50;;;;;;;;;;1799255;78;21547;-73
2022/12/11 07:51:10;;;;;;;7.33;5.12;;;;;;;;;;1795446;78;21008;-74
2022/12/11 07:53:37;;;;;;;8.73;5.22;;;;;;;;;;1794213;78;20990;-73
2022/12/11 07:56:04;;;;;;;6.97;4.60;;;;;;;;;;1794690;78;21064;-73
2022/12/11 07:58:30;;;;;;;7.55;5.03;;;;;;;;;;1795488;78;20981;-72
2022/12/11 08:00:57;;;;;;;7.78;4.85;;;;;;;;;;1797554;78;21047;-73
2022/12/11 08:03:23;;;;;;;7.65;5.20;;;;;;;;;;1797985;79;21528;-73
2022/12/11 08:05:50;;;;;;;6.22;4.50;;;;;;;;;;1797500;80;21000;-73
2022/12/11 08:08:16;;;;;;;6.87;4.87;;;;;;;;;;1811575;78;21063;-73
2022/12/11 08:10:43;;;;;;;7.22;4.60;;;;;;;;;;1798182;80;21083;-72
2022/12/11 08:13:09;;;;;;;8.00;4.90;;;;;;;;;;1797949;80;21048;-72
2022/12/11 08:15:36;;;;;;;6.45;4.80;;;;;;;;;;1798185;80;22184;-72
2022/12/11 08:18:02;;;;;;;6.78;4.97;;;;;;;;;;1798391;78;21071;-72
2022/12/11 08:20:29;;;;;;;7.95;4.90;;;;;;;;;;1803591;78;21071;-72
2022/12/11 08:22:56;;;;;;;7.45;4.83;;;;;;;;;;1799139;78;20993;-73
2022/12/11 08:25:22;;;;;;;6.20;4.87;;;;;;;;;;1795716;78;21037;-73
2022/12/11 08:27:49;;;;;;;5.70;4.40;;;;;;;;;;1806357;78;21032;-73
2022/12/11 08:30:15;;;;;;;6.22;4.60;;;;;;;;;;1800912;78;21008;-73
2022/12/11 08:32:41;;;;;;;7.12;5.45;;;;;;;;;;1813067;78;21004;-73
2022/12/11 08:35:07;;;;;;;6.95;4.87;;;;;;;;;;1803136;78;21519;-74
2022/12/11 08:37:34;;;;;;;7.25;5.08;;;;;;;;;;1800854;78;21123;-72
2022/12/11 08:40:00;;;;;;;8.35;5.05;;;;;;;;;;1810687;78;21024;-73
2022/12/11 08:42:26;;;;;;;6.95;5.03;;;;;;;;;;1803320;78;21047;-77
2022/12/11 08:44:53;;;;;;;6.92;5.08;;;;;;;;;;1799484;78;21071;-72
2022/12/11 08:47:19;;;;;;;7.25;5.28;;;;;;;;;;1802024;78;21099;-72
2022/12/11 08:49:45;;;;;;;7.40;5.05;;;;;;;;;;1796818;78;21016;-72
2022/12/11 08:52:11;;;;;;;8.13;5.80;;;;;;;;;;1796653;78;21579;-73
2022/12/11 08:54:38;;;;;;;7.62;5.60;;;;;;;;;;1795498;80;21087;-73
2022/12/11 08:57:04;;;;;;;7.30;5.22;;;;;;;;;;1814806;78;21001;-73
2022/12/11 08:59:31;;;;;;;7.12;4.90;;;;;;;;;;1796512;78;21116;-73
2022/12/11 09:01:58;;;;;;;6.87;4.95;;;;;;;;;;1796557;78;21023;-72
2022/12/11 09:04:24;;;;;;;6.90;4.92;;;;;;;;;;1792416;80;21020;-72
2022/12/11 09:06:51;;;;;;;6.00;4.85;;;;;;;;;;1796191;78;21052;-73
2022/12/11 09:09:19;;;;;;;8.33;5.33;;;;;;;;;;1796031;78;21036;-72
2022/12/11 09:11:48;;;;;;;6.60;4.83;;;;;;;;;;1802154;78;21008;-71
2022/12/11 09:14:15;;;;;;;7.22;5.03;;;;;;;;;;1810331;78;21009;-72
2022/12/11 09:16:41;;;;;;;6.58;4.75;;;;;;;;;;1799450;78;21539;-73
2022/12/11 09:19:07;;;;;;;7.70;4.78;;;;;;;;;;1794578;78;21424;-73
2022/12/11 09:21:33;;;;;;;6.95;5.00;;;;;;;;;;1809120;78;20993;-73
2022/12/11 09:24:00;;;;;;;8.13;5.40;;;;;;;;;;1795518;78;21507;-73
2022/12/11 09:26:26;;;;;;;8.80;5.20;;;;;;;;;;1800984;78;21008;-73
2022/12/11 09:28:52;;;;;;;7.37;5.12;;;;;;;;;;1796737;78;20993;-73
2022/12/11 09:31:22;;;;;;;7.00;4.70;;;;;;;;;;1793330;78;21454;-73
2022/12/11 09:33:48;;;;;;;7.10;4.85;;;;;;;;;;1810941;78;21517;-73
2022/12/11 09:36:14;;;;;;;6.55;4.50;;;;;;;;;;1794818;78;21324;-72
2022/12/11 09:50:33;;;;;;;15.55;8.05;;;;;;;;;;1818470;77;22095;-74
2022/12/11 09:53:20;;;;;;;16.48;9.43;;;;;;;;;;1785529;80;21115;-74
2022/12/11 09:55:57;;;;;;;18.42;9.80;;;;;;;;;;1763241;80;21533;-74
2022/12/11 09:58:37;;;;;;;13.65;9.08;;;;;;;;;;1765757;80;21076;-74
2022/12/11 10:01:11;;;;;;;10.82;7.20;;;;;;;;;;1761053;80;21643;-73
2022/12/11 10:03:45;;;;;;;11.35;7.37;;;;;;;;;;1774367;80;21084;-73
2022/12/11 10:06:22;;;;;;;11.65;7.53;;;;;;;;;;1769513;80;20985;-74
2022/12/11 10:08:56;;;;;;;11.10;6.92;;;;;;;;;;1764621;80;21519;-72
2022/12/11 10:11:42;;;;;;;13.83;8.15;;;;;;;;;;1781174;80;21510;-72
2022/12/11 10:14:27;;;;;;;28.00;16.87;;;;;;;;;;1766349;80;21028;-74
2022/12/11 10:16:55;;;;;;;12.55;7.83;;;;;;;;;;1784400;80;20997;-73
2022/12/11 10:19:26;;;;;;;11.65;8.30;;;;;;;;;;1778857;80;20978;-74
2022/12/11 10:21:52;;;;;;;18.20;11.35;;;;;;;;;;1787553;80;22080;-75
2022/12/11 10:24:35;;;;;;;12.58;7.95;;;;;;;;;;1779416;80;21059;-74
2022/12/11 10:27:03;;;;;;;11.03;7.17;;;;;;;;;;1763146;80;21275;-74
2022/12/11 10:29:30;;;;;;;9.68;7.00;;;;;;;;;;1766752;80;21535;-74
2022/12/11 10:31:56;;;;;;;16.05;12.63;;;;;;;;;;1768975;80;21500;-74
2022/12/11 10:34:36;;;;;;;10.28;7.60;;;;;;;;;;1784171;80;21492;-74
2022/12/11 10:37:02;;;;;;;10.72;7.92;;;;;;;;;;1774353;80;21048;-74
2022/12/11 10:39:29;;;;;;;8.80;6.30;;;;;;;;;;1779064;80;21068;-75
2022/12/11 10:41:55;;;;;;;8.63;5.80;;;;;;;;;;1745275;81;21032;-75
2022/12/11 10:44:22;;;;;;;6.53;4.62;;;;;;;;;;1747112;80;21040;-74
2022/12/11 10:46:50;;;;;;;9.33;5.92;;;;;;;;;;1759232;80;21036;-74
2022/12/11 10:49:21;;;;;;;9.15;6.03;;;;;;;;;;1743085;81;21488;-74
2022/12/11 10:51:47;;;;;;;10.58;5.80;;;;;;;;;;1752488;81;21025;-74
2022/12/11 10:54:18;;;;;;;8.43;5.50;;;;;;;;;;1740335;82;21010;-74
2022/12/11 10:56:45;;;;;;;7.20;5.05;;;;;;;;;;1735149;82;20985;-74
2022/12/11 10:59:37;;;;;;;8.00;5.65;;;;;;;;;;1731792;82;21599;-74
2022/12/11 11:02:24;;;;;;;8.88;6.17;;;;;;;;;;1696266;82;22098;-74
2022/12/11 11:04:50;;;;;;;11.15;6.37;;;;;;;;;;1737357;82;21016;-74
2022/12/11 11:07:18;;;;;;;8.65;5.65;;;;;;;;;;1723196;83;21037;-74
2022/12/11 11:09:46;;;;;;;11.48;7.22;;;;;;;;;;1733196;82;20966;-74
2022/12/11 11:12:20;;;;;;;31.37;12.47;;;;;;;;;;1732663;82;21284;-74
2022/12/11 11:14:46;;;;;;;8.30;4.85;;;;;;;;;;1745201;82;20994;-74
2022/12/11 11:17:13;;;;;;;11.93;6.35;;;;;;;;;;1736005;82;22070;-74
2022/12/11 11:19:39;;;;;;;11.08;6.55;;;;;;;;;;1741162;82;21045;-74
2022/12/11 11:22:08;;;;;;;8.75;5.45;;;;;;;;;;1745184;80;21014;-74
2022/12/11 11:24:36;;;;;;;7.62;5.65;;;;;;;;;;1753870;80;20990;-74
2022/12/11 11:27:02;;;;;;;45.15;41.37;;;;;;;;;;1743791;80;21017;-74
2022/12/11 11:29:31;;;;;;;7.28;5.50;;;;;;;;;;1749847;82;21001;-74
2022/12/11 11:32:01;;;;;;;6.37;4.55;;;;;;;;;;1730649;82;21025;-74
2022/12/11 11:34:29;;;;;;;6.62;4.80;;;;;;;;;;1732580;82;21009;-74
2022/12/11 11:36:56;;;;;;;6.30;5.12;;;;;;;;;;1744739;82;20974;-74
2022/12/11 11:39:24;;;;;;;6.47;4.42;;;;;;;;;;1738993;82;22133;-74
2022/12/11 11:42:07;;;;;;;9.10;6.97;;;;;;;;;;1739823;80;21555;-74
2022/12/11 11:44:35;;;;;;;10.97;7.63;;;;;;;;;;1746118;82;21013;-74
2022/12/11 11:47:03;;;;;;;6.95;4.97;;;;;;;;;;1738472;82;21012;-74
2022/12/11 11:49:35;;;;;;;7.22;4.85;;;;;;;;;;1745227;82;21660;-74
2022/12/11 11:52:12;;;;;;;8.38;4.80;;;;;;;;;;1724510;80;21017;-74
2022/12/11 11:54:40;;;;;;;7.37;4.28;;;;;;;;;;1744565;81;21501;-74
2022/12/11 11:57:11;;;;;;;5.97;4.60;;;;;;;;;;1738636;82;21008;-74
2022/12/11 11:59:42;;;;;;;7.30;4.92;;;;;;;;;;1734146;82;20994;-73
2022/12/11 12:02:10;;;;;;;6.17;5.03;;;;;;;;;;1730789;82;20999;-73
2022/12/11 12:04:36;;;;;;;7.42;4.83;;;;;;;;;;1733009;82;20974;-74
2022/12/11 12:07:15;;;;;;;6.92;5.10;;;;;;;;;;1723066;82;21068;-74
2022/12/11 12:09:58;;;;;;;7.28;5.50;;;;;;;;;;1723464;82;21049;-75
2022/12/11 12:12:42;;;;;;;6.95;4.75;;;;;;;;;;1759816;80;21041;-75
2022/12/11 12:15:17;;;;;;;5.62;4.53;;;;;;;;;;1728678;82;21011;-74
2022/12/11 12:17:52;;;;;;;6.22;4.80;;;;;;;;;;1718033;82;21013;-74
2022/12/11 12:20:38;;;;;;;6.55;4.37;;;;;;;;;;1730490;82;21014;-74
2022/12/11 12:23:15;;;;;;;5.28;4.22;;;;;;;;;;1746225;82;20974;-74
2022/12/11 12:25:54;;;;;;;5.87;4.50;;;;;;;;;;1757143;80;21041;-73
2022/12/11 12:41:58;;;;;;;4.50;3.50;;;;;;;;;;1808593;77;22162;-72
2022/12/11 12:44:25;;;;;;;5.53;3.50;;;;;;;;;;1779487;80;21040;-72
2022/12/11 12:46:56;;;;;;;5.05;3.45;;;;;;;;;;1768129;80;20977;-71
2022/12/11 12:49:23;;;;;;;6.08;3.50;;;;;;;;;;1771595;80;20969;-71
2022/12/11 12:51:50;;;;;;;4.40;3.33;;;;;;;;;;1780304;80;21030;-72
2022/12/11 12:54:16;;;;;;;4.90;3.85;;;;;;;;;;1761844;80;20997;-73
2022/12/11 12:56:43;;;;;;;4.95;3.40;;;;;;;;;;1773755;80;21511;-71
2022/12/11 12:59:21;;;;;;;5.08;3.60;;;;;;;;;;1761588;80;20969;-72
2022/12/11 13:01:48;;;;;;;6.87;3.30;;;;;;;;;;1763048;80;21028;-71
2022/12/11 13:04:16;;;;;;;4.50;3.10;;;;;;;;;;1765977;80;21063;-71
2022/12/11 13:06:43;;;;;;;4.65;3.10;;;;;;;;;;1775442;80;21032;-71
2022/12/11 13:09:17;;;;;;;4.33;3.22;;;;;;;;;;1779445;79;21009;-71
2022/12/11 13:11:44;;;;;;;4.08;3.08;;;;;;;;;;1765285;80;21087;-70
2022/12/11 13:14:15;;;;;;;4.67;3.10;;;;;;;;;;1767183;79;21518;-70
2022/12/11 13:16:42;;;;;;;4.03;2.80;;;;;;;;;;1770041;80;21028;-71
2022/12/11 13:19:25;;;;;;;9.83;5.20;;;;;;;;;;1769463;80;20978;-70
2022/12/11 13:22:04;;;;;;;6.03;3.87;;;;;;;;;;1776984;80;21040;-71
2022/12/11 13:24:30;;;;;;;7.05;4.00;;;;;;;;;;1762843;80;21535;-71
2022/12/11 13:26:58;;;;;;;7.45;3.47;;;;;;;;;;1780303;80;21000;-70
2022/12/11 13:29:28;;;;;;;5.00;3.65;;;;;;;;;;1770340;80;21040;-70
2022/12/11 13:31:59;;;;;;;5.05;3.50;;;;;;;;;;1755600;80;21055;-70
2022/12/11 13:34:26;;;;;;;5.33;3.30;;;;;;;;;;1750600;82;21496;-70
2022/12/11 13:36:52;;;;;;;4.70;3.12;;;;;;;;;;1753572;80;21009;-70
2022/12/11 13:39:20;;;;;;;4.35;3.58;;;;;;;;;;1761119;81;21592;-71
2022/12/11 13:41:47;;;;;;;4.05;2.95;;;;;;;;;;1744263;80;21041;-69
2022/12/11 13:44:18;;;;;;;4.20;2.80;;;;;;;;;;1746086;82;21051;-70
2022/12/11 13:46:45;;;;;;;6.08;3.70;;;;;;;;;;1748205;81;22579;-70
2022/12/11 13:49:13;;;;;;;4.92;3.35;;;;;;;;;;1727229;80;21056;-69
2022/12/11 13:51:39;;;;;;;5.42;3.15;;;;;;;;;;1745580;80;21586;-70
2022/12/11 13:54:06;;;;;;;6.75;3.72;;;;;;;;;;1744432;82;21076;-71
2022/12/11 13:56:33;;;;;;;6.15;3.40;;;;;;;;;;1741564;80;21044;-72
2022/12/11 13:58:59;;;;;;;5.35;3.27;;;;;;;;;;1746041;80;21005;-70
2022/12/11 14:01:31;;;;;;;5.28;3.35;;;;;;;;;;1744728;80;21089;-70
2022/12/11 14:04:01;;;;;;;4.97;3.35;;;;;;;;;;1742834;80;21049;-69
2022/12/11 14:06:27;;;;;;;4.85;3.35;;;;;;;;;;1742704;80;21024;-68
2022/12/11 14:08:54;;;;;;;5.50;3.50;;;;;;;;;;1743016;80;21142;-70
2022/12/11 14:11:21;;;;;;;3.98;3.20;;;;;;;;;;1701792;83;21002;-70
2022/12/11 14:13:49;;;;;;;5.92;3.55;;;;;;;;;;1735233;80;21547;-70
2022/12/11 14:16:21;;;;;;;4.65;3.25;;;;;;;;;;1717816;82;21055;-69
2022/12/11 14:18:47;;;;;;;5.85;3.60;;;;;;;;;;1750237;81;20970;-69
2022/12/11 14:21:18;;;;;;;4.50;3.65;;;;;;;;;;1747639;80;21313;-69
2022/12/11 14:23:46;;;;;;;6.08;4.03;;;;;;;;;;1748666;80;20931;-70
2022/12/11 14:26:16;;;;;;;6.15;4.33;;;;;;;;;;1750110;80;21032;-69
2022/12/11 14:28:43;;;;;;;5.12;3.10;;;;;;;;;;1748425;80;21036;-70
2022/12/11 14:31:08;;;;;;;5.08;3.30;;;;;;;;;;1741530;79;21087;-70
2022/12/11 14:33:37;;;;;;;5.03;3.47;;;;;;;;;;1744567;80;20998;-69
2022/12/11 14:36:04;;;;;;;5.60;3.72;;;;;;;;;;1743233;80;21009;-69
2022/12/11 14:38:35;;;;;;;5.60;3.70;;;;;;;;;;1736399;80;21032;-69
2022/12/11 14:41:02;;;;;;;9.33;7.40;;;;;;;;;;1749261;80;21021;-68
2022/12/11 14:43:30;;;;;;;14.43;9.60;;;;;;;;;;1752302;80;20968;-69
2022/12/11 14:46:04;;;;;;;6.53;3.72;;;;;;;;;;1760294;81;21009;-68
2022/12/11 14:48:32;;;;;;;4.65;3.30;;;;;;;;;;1750480;81;21052;-68
2022/12/11 14:50:58;;;;;;;5.70;3.80;;;;;;;;;;1758338;81;20995;-69
2022/12/11 14:53:26;;;;;;;4.83;3.58;;;;;;;;;;1753584;81;21523;-68
2022/12/11 15:08:56;;;;;;;6.47;3.80;;;;;;;;;;1818057;77;20155;-70
2022/12/11 15:11:23;;;;;;;4.83;3.37;;;;;;;;;;1765182;80;21073;-71
2022/12/11 15:13:54;;;;;;;7.08;3.70;;;;;;;;;;1773684;80;21085;-70
2022/12/11 15:16:21;;;;;;;4.80;3.55;;;;;;;;;;1763483;80;21093;-71
2022/12/11 15:18:48;;;;;;;5.40;3.85;;;;;;;;;;1772249;80;21040;-70
2022/12/11 15:21:15;;;;;;;5.40;3.70;;;;;;;;;;1771154;80;21642;-70
2022/12/11 15:23:46;;;;;;;9.63;8.60;;;;;;;;;;1780789;80;21047;-70
2022/12/11 15:26:12;;;;;;;6.17;3.90;;;;;;;;;;1766797;80;21044;-70
2022/12/11 15:28:39;;;;;;;4.70;3.60;;;;;;;;;;1785375;80;21837;-71
2022/12/11 15:31:06;;;;;;;5.83;3.98;;;;;;;;;;1784588;80;21542;-70
2022/12/11 15:33:33;;;;;;;5.78;3.65;;;;;;;;;;1769790;79;21013;-71
2022/12/11 15:36:00;;;;;;;5.05;3.80;;;;;;;;;;1769105;80;20969;-70
2022/12/11 15:38:30;;;;;;;5.67;3.70;;;;;;;;;;1764078;80;21028;-70
2022/12/11 15:40:56;;;;;;;5.45;3.40;;;;;;;;;;1763253;80;21480;-70
2022/12/11 15:43:22;;;;;;;6.55;3.20;;;;;;;;;;1761402;80;21036;-70
2022/12/11 15:45:48;;;;;;;4.45;3.10;;;;;;;;;;1777576;78;21606;-72
2022/12/11 15:48:14;;;;;;;4.50;3.20;;;;;;;;;;1759088;80;21017;-72
2022/12/11 15:50:41;;;;;;;4.78;3.17;;;;;;;;;;1783600;80;20965;-71
2022/12/11 15:53:09;;;;;;;5.05;3.27;;;;;;;;;;1773348;80;21005;-70
2022/12/11 15:55:35;;;;;;;4.35;3.02;;;;;;;;;;1784835;80;21023;-70
2022/12/11 15:58:01;;;;;;;4.53;3.42;;;;;;;;;;1765098;80;21554;-70
2022/12/11 16:00:28;;;;;;;4.92;3.65;;;;;;;;;;1780254;80;21092;-70
2022/12/11 16:02:54;;;;;;;5.30;3.37;;;;;;;;;;1777689;80;21060;-70
2022/12/11 16:05:22;;;;;;;4.67;3.30;;;;;;;;;;1785137;79;21060;-70
2022/12/11 16:07:50;;;;;;;4.70;3.22;;;;;;;;;;1769216;80;21040;-70
2022/12/11 16:10:17;;;;;;;3.83;3.02;;;;;;;;;;1771700;80;21077;-70
2022/12/11 16:12:43;;;;;;;4.25;3.02;;;;;;;;;;1760377;80;21049;-70
2022/12/11 16:15:11;;;;;;;4.83;3.22;;;;;;;;;;1767126;79;21093;-69
2022/12/11 16:17:38;;;;;;;4.25;3.30;;;;;;;;;;1763656;80;20977;-70
2022/12/11 16:20:04;;;;;;;4.67;3.30;;;;;;;;;;1769416;80;20990;-71
2022/12/11 16:22:31;;;;;;;4.80;3.58;;;;;;;;;;1784656;80;21539;-69
2022/12/11 16:24:57;;;;;;;4.87;3.58;;;;;;;;;;1783201;80;21508;-70
2022/12/11 16:27:24;;;;;;;5.90;4.17;;;;;;;;;;1756609;80;21029;-69
2022/12/11 16:29:50;;;;;;;12.95;7.47;;;;;;;;;;1765682;80;21063;-69
2022/12/11 16:32:16;;;;;;;21.57;14.58;;;;;;;;;;1774276;80;22279;-70
2022/12/11 16:34:44;;;;;;;6.33;5.00;;;;;;;;;;1775671;79;21013;-69
2022/12/11 16:37:10;;;;;;;8.58;5.03;;;;;;;;;;1756315;80;21017;-70
2022/12/11 16:39:36;;;;;;;7.22;4.05;;;;;;;;;;1762963;80;21021;-69
2022/12/11 16:42:03;;;;;;;9.15;4.50;;;;;;;;;;1717544;83;21547;-70
2022/12/11 16:44:29;;;;;;;7.53;5.12;;;;;;;;;;1707737;82;21040;-71
2022/12/11 16:46:56;;;;;;;10.45;5.72;;;;;;;;;;1712807;82;21040;-70
2022/12/11 16:49:23;;;;;;;10.00;5.30;;;;;;;;;;1766231;80;21576;-70
2022/12/11 16:51:49;;;;;;;9.43;5.42;;;;;;;;;;1758407;80;21040;-70
2022/12/11 16:54:16;;;;;;;8.98;5.47;;;;;;;;;;1755738;80;21092;-70
2022/12/11 16:56:45;;;;;;;10.08;5.60;;;;;;;;;;1768711;80;21017;-70
2022/12/11 16:59:11;;;;;;;11.95;5.80;;;;;;;;;;1756907;80;21646;-69
2022/12/11 17:01:37;;;;;;;13.18;6.58;;;;;;;;;;1766898;80;21261;-70
2022/12/11 17:04:03;;;;;;;17.57;7.75;;;;;;;;;;1757093;80;21506;-70
2022/12/11 17:06:29;;;;;;;12.47;7.20;;;;;;;;;;1780931;80;21037;-70
2022/12/11 17:08:56;;;;;;;7.62;5.10;;;;;;;;;;1773384;80;21041;-70
2022/12/11 17:11:25;;;;;;;9.00;5.55;;;;;;;;;;1774363;79;21008;-70
2022/12/11 17:13:54;;;;;;;11.97;6.37;;;;;;;;;;1780291;80;21116;-69
2022/12/11 17:16:21;;;;;;;9.30;5.42;;;;;;;;;;1771922;80;21032;-70
2022/12/11 17:18:47;;;;;;;10.30;5.58;;;;;;;;;;1770281;80;21042;-69
2022/12/11 17:21:14;;;;;;;10.88;6.17;;;;;;;;;;1779158;78;21021;-69
2022/12/11 17:23:41;;;;;;;13.43;6.08;;;;;;;;;;1767670;80;21119;-69
2022/12/11 17:26:09;;;;;;;11.33;6.10;;;;;;;;;;1765095;80;22160;-69
2022/12/11 17:28:35;;;;;;;9.83;5.97;;;;;;;;;;1778456;80;21009;-70
2022/12/11 17:31:03;;;;;;;11.05;6.72;;;;;;;;;;1779097;80;20986;-69
2022/12/11 17:33:29;;;;;;;11.80;6.22;;;;;;;;;;1774084;80;21067;-70
2022/12/11 17:35:57;;;;;;;12.20;5.78;;;;;;;;;;1786178;80;21014;-70
2022/12/11 17:38:24;;;;;;;10.60;5.37;;;;;;;;;;1772664;80;21017;-68
2022/12/11 17:40:50;;;;;;;12.37;6.75;;;;;;;;;;1772294;80;21058;-68
2022/12/11 17:43:16;;;;;;;12.13;6.92;;;;;;;;;;1772364;80;21037;-69
2022/12/11 17:45:45;;;;;;;12.90;7.58;;;;;;;;;;1773246;80;21011;-68
2022/12/11 17:48:11;;;;;;;14.25;7.58;;;;;;;;;;1772542;79;21013;-69
2022/12/11 17:50:41;;;;;;;11.57;5.70;;;;;;;;;;1773116;80;21458;-69
2022/12/11 17:53:08;;;;;;;13.25;10.75;;;;;;;;;;1772657;79;21531;-69
2022/12/11 17:55:37;;;;;;;16.87;9.55;;;;;;;;;;1775930;80;20979;-69
2022/12/11 17:58:03;;;;;;;15.13;8.58;;;;;;;;;;1775978;80;22017;-69
2022/12/11 18:00:29;;;;;;;13.90;7.42;;;;;;;;;;1778857;80;21477;-70
2022/12/11 18:02:55;;;;;;;14.75;8.43;;;;;;;;;;1780067;80;21515;-70
2022/12/11 18:05:22;;;;;;;20.43;17.20;;;;;;;;;;1778313;80;21062;-69
2022/12/11 18:07:48;;;;;;;13.68;8.30;;;;;;;;;;1774315;80;21536;-70
2022/12/11 18:10:14;;;;;;;14.10;6.75;;;;;;;;;;1773197;80;21009;-70
2022/12/11 18:12:40;;;;;;;15.65;7.80;;;;;;;;;;1776317;79;21001;-69
2022/12/11 18:15:09;;;;;;;14.50;6.50;;;;;;;;;;1779568;80;21005;-70
2022/12/11 18:17:35;;;;;;;15.78;7.95;;;;;;;;;;1775446;80;20996;-70
2022/12/11 18:20:01;;;;;;;12.45;7.17;;;;;;;;;;1775164;78;21017;-70
2022/12/11 18:22:28;;;;;;;13.60;7.92;;;;;;;;;;1773273;80;20981;-69
2022/12/11 18:24:57;;;;;;;11.53;6.60;;;;;;;;;;1775671;79;22307;-69
2022/12/11 18:27:24;;;;;;;18.37;10.28;;;;;;;;;;1776565;80;20989;-69
2022/12/11 18:29:50;;;;;;;15.90;8.85;;;;;;;;;;1769931;80;21001;-71
2022/12/11 18:32:16;;;;;;;13.93;7.60;;;;;;;;;;1774192;80;20997;-70
2022/12/11 18:34:42;;;;;;;13.18;7.72;;;;;;;;;;1772399;80;21004;-70
2022/12/11 18:37:08;;;;;;;13.32;8.98;;;;;;;;;;1773561;80;21048;-70
2022/12/11 18:39:34;;;;;;;13.22;8.48;;;;;;;;;;1780400;80;20989;-70
2022/12/11 18:42:00;;;;;;;13.60;7.03;;;;;;;;;;1776345;80;21173;-70
2022/12/11 18:44:26;;;;;;;12.05;7.87;;;;;;;;;;1776956;79;21037;-70
2022/12/11 18:46:52;;;;;;;15.65;9.05;;;;;;;;;;1776567;80;21080;-69
2022/12/11 18:49:18;;;;;;;20.00;9.83;;;;;;;;;;1772486;79;21040;-70
2022/12/11 18:51:44;;;;;;;11.05;7.15;;;;;;;;;;1775992;80;21573;-69
2022/12/11 18:54:11;;;;;;;4.83;3.30;;;;;;;;;;1777939;80;20973;-69
2022/12/11 18:56:37;;;;;;;3.58;2.70;;;;;;;;;;1773174;80;21029;-69
2022/12/11 18:59:03;;;;;;;5.50;3.33;;;;;;;;;;1775466;80;21116;-70
2022/12/11 19:01:31;;;;;;;4.55;2.85;;;;;;;;;;1777943;80;21016;-69
2022/12/11 19:03:58;;;;;;;4.62;3.25;;;;;;;;;;1782272;80;21014;-69
2022/12/11 19:06:27;;;;;;;5.15;3.47;;;;;;;;;;1778036;79;21034;-69
2022/12/11 19:08:56;;;;;;;4.37;3.55;;;;;;;;;;1769972;80;21049;-71
2022/12/11 19:11:23;;;;;;;5.62;3.98;;;;;;;;;;1764555;80;21015;-72
2022/12/11 19:13:50;;;;;;;5.17;3.70;;;;;;;;;;1764244;81;21473;-72
2022/12/11 19:16:20;;;;;;;5.17;3.52;;;;;;;;;;1770150;79;21006;-71
2022/12/11 19:18:47;;;;;;;5.72;3.90;;;;;;;;;;1762015;81;21544;-71
2022/12/11 19:21:14;;;;;;;6.30;3.98;;;;;;;;;;1765215;81;21031;-71
2022/12/11 19:23:42;;;;;;;5.75;4.37;;;;;;;;;;1761625;81;20989;-71
2022/12/11 19:26:13;;;;;;;6.17;4.37;;;;;;;;;;1757442;79;21035;-71
2022/12/11 19:28:39;;;;;;;6.72;4.60;;;;;;;;;;1761158;81;21010;-72
2022/12/11 19:31:10;;;;;;;5.25;4.00;;;;;;;;;;1763713;79;21153;-73
2022/12/11 19:33:36;;;;;;;5.30;3.80;;;;;;;;;;1760176;80;22000;-72
2022/12/11 19:36:03;;;;;;;5.80;4.12;;;;;;;;;;1723308;82;21543;-71
2022/12/11 19:38:33;;;;;;;5.83;4.33;;;;;;;;;;1711085;83;21014;-73
2022/12/11 19:41:01;;;;;;;6.08;4.03;;;;;;;;;;1761119;80;20999;-73
2022/12/11 19:43:27;;;;;;;6.05;3.77;;;;;;;;;;1748505;80;21019;-72
2022/12/11 19:45:54;;;;;;;4.95;3.70;;;;;;;;;;1759223;81;21013;-73
2022/12/11 19:48:20;;;;;;;5.62;3.80;;;;;;;;;;1761514;81;21334;-71
2022/12/11 19:50:47;;;;;;;5.95;3.92;;;;;;;;;;1758544;81;21026;-70
2022/12/11 19:53:13;;;;;;;4.90;3.80;;;;;;;;;;1756342;81;21461;-71
2022/12/11 19:55:42;;;;;;;5.12;3.70;;;;;;;;;;1752405;81;21121;-72
2022/12/11 19:58:08;;;;;;;4.87;3.52;;;;;;;;;;1765830;81;21175;-72
2022/12/11 20:00:36;;;;;;;5.70;4.00;;;;;;;;;;1756471;81;21028;-71
2022/12/11 20:03:05;;;;;;;5.75;3.72;;;;;;;;;;1762415;81;21037;-72
2022/12/11 20:05:31;;;;;;;6.03;4.35;;;;;;;;;;1762567;81;21063;-71
2022/12/11 20:07:59;;;;;;;5.50;3.75;;;;;;;;;;1755611;81;20968;-71
2022/12/11 20:10:26;;;;;;;5.42;4.15;;;;;;;;;;1763422;81;21580;-72
2022/12/11 20:12:57;;;;;;;5.33;4.05;;;;;;;;;;1758581;81;21489;-71
2022/12/11 20:15:24;;;;;;;5.40;3.92;;;;;;;;;;1765632;81;21036;-71
2022/12/11 20:17:52;;;;;;;4.20;3.40;;;;;;;;;;1774222;81;21051;-73
2022/12/11 20:20:18;;;;;;;8.80;4.83;;;;;;;;;;1764463;79;21053;-73